sensor_id;sensor_type;location;lat;lon;timestamp;pressure;altitude;pressure_sealevel;temperature;humidity
20971;BME280;10644;48.834;10.088;2023-01-29T00:00:32;97702.19;;;3.99;59.49
20971;BME280;10644;48.834;10.088;2023-01-29T00:02:57;97706.47;;;3.95;59.33
20971;BME280;10644;48.834;10.088;2023-01-29T00:05:24;97704.88;;;3.88;59.65
20971;BME280;10644;48.834;10.088;2023-01-29T00:07:55;97703.91;;;4.00;59.30
20971;BME280;10644;48.834;10.088;2023-01-29T00:10:24;97692.69;;;4.16;58.99
20971;BME280;10644;48.834;10.088;2023-01-29T00:12:50;97688.28;;;4.30;58.71
20971;BME280;10644;48.834;10.088;2023-01-29T00:15:16;97685.13;;;4.13;58.61
20971;BME280;10644;48.834;10.088;2023-01-29T00:17:43;97686.91;;;4.08;59.21
20971;BME280;10644;48.834;10.088;2023-01-29T00:20:16;97695.28;;;4.11;59.27
20971;BME280;10644;48.834;10.088;2023-01-29T00:22:41;97699.47;;;4.15;58.77
20971;BME280;10644;48.834;10.088;2023-01-29T00:25:18;97693.53;;;4.16;59.10
20971;BME280;10644;48.834;10.088;2023-01-29T00:27:43;97694.28;;;4.24;58.66
20971;BME280;10644;48.834;10.088;2023-01-29T00:30:11;97700.19;;;4.23;58.13
20971;BME280;10644;48.834;10.088;2023-01-29T00:32:38;97684.53;;;3.94;58.86
20971;BME280;10644;48.834;10.088;2023-01-29T00:35:22;97685.41;;;3.92;59.24
20971;BME280;10644;48.834;10.088;2023-01-29T00:37:48;97688.78;;;3.91;59.54
20971;BME280;10644;48.834;10.088;2023-01-29T00:40:13;97687.91;;;3.93;59.18
20971;BME280;10644;48.834;10.088;2023-01-29T00:42:52;97687.66;;;4.14;59.26
20971;BME280;10644;48.834;10.088;2023-01-29T00:45:36;97688.41;;;4.21;58.57
20971;BME280;10644;48.834;10.088;2023-01-29T00:48:04;97680.88;;;4.13;58.58
20971;BME280;10644;48.834;10.088;2023-01-29T00:50:31;97690.13;;;4.19;58.72
20971;BME280;10644;48.834;10.088;2023-01-29T00:52:57;97694.50;;;4.06;58.68
20971;BME280;10644;48.834;10.088;2023-01-29T00:55:30;97702.09;;;4.06;58.94
20971;BME280;10644;48.834;10.088;2023-01-29T00:57:59;97702.16;;;4.03;58.49
20971;BME280;10644;48.834;10.088;2023-01-29T01:00:26;97702.03;;;4.12;58.93
20971;BME280;10644;48.834;10.088;2023-01-29T01:02:51;97703.53;;;4.27;58.58
20971;BME280;10644;48.834;10.088;2023-01-29T01:05:32;97694.41;;;4.17;58.66
20971;BME280;10644;48.834;10.088;2023-01-29T01:07:57;97680.88;;;4.16;58.33
20971;BME280;10644;48.834;10.088;2023-01-29T01:10:30;97685.94;;;4.16;58.50
20971;BME280;10644;48.834;10.088;2023-01-29T01:12:59;97678.13;;;4.31;58.17
20971;BME280;10644;48.834;10.088;2023-01-29T01:15:27;97668.00;;;4.30;58.28
20971;BME280;10644;48.834;10.088;2023-01-29T01:17:59;97670.81;;;4.10;58.39
20971;BME280;10644;48.834;10.088;2023-01-29T01:20:34;97664.09;;;4.06;58.73
20971;BME280;10644;48.834;10.088;2023-01-29T01:22:59;97673.44;;;4.04;58.21
20971;BME280;10644;48.834;10.088;2023-01-29T01:25:34;97659.03;;;4.06;58.93
20971;BME280;10644;48.834;10.088;2023-01-29T01:27:59;97656.50;;;4.06;58.31
20971;BME280;10644;48.834;10.088;2023-01-29T01:30:28;97660.78;;;4.01;58.44
20971;BME280;10644;48.834;10.088;2023-01-29T01:32:58;97664.00;;;4.12;58.51
20971;BME280;10644;48.834;10.088;2023-01-29T01:35:25;97656.47;;;4.11;58.00
20971;BME280;10644;48.834;10.088;2023-01-29T01:37:50;97663.03;;;4.24;57.89
20971;BME280;10644;48.834;10.088;2023-01-29T01:40:20;97662.84;;;4.39;57.90
20971;BME280;10644;48.834;10.088;2023-01-29T01:42:48;97672.16;;;4.35;57.36
20971;BME280;10644;48.834;10.088;2023-01-29T01:45:34;97668.88;;;4.30;58.12
20971;BME280;10644;48.834;10.088;2023-01-29T01:48:14;97671.34;;;4.32;57.54
20971;BME280;10644;48.834;10.088;2023-01-29T01:51:13;97673.88;;;4.33;57.62
20971;BME280;10644;48.834;10.088;2023-01-29T01:54:02;97665.41;;;4.33;57.75
20971;BME280;10644;48.834;10.088;2023-01-29T01:56:41;97665.56;;;4.22;57.45
20971;BME280;10644;48.834;10.088;2023-01-29T01:59:11;97657.09;;;4.26;57.23
20971;BME280;10644;48.834;10.088;2023-01-29T02:01:41;97658.59;;;4.38;57.30
20971;BME280;10644;48.834;10.088;2023-01-29T02:04:14;97659.38;;;4.43;57.16
20971;BME280;10644;48.834;10.088;2023-01-29T02:07:02;97666.94;;;4.47;57.00
20971;BME280;10644;48.834;10.088;2023-01-29T02:10:04;97664.97;;;4.64;56.80
20971;BME280;10644;48.834;10.088;2023-01-29T02:12:33;97667.34;;;4.75;56.33
20971;BME280;10644;48.834;10.088;2023-01-29T02:15:05;97664.63;;;4.85;55.98
20971;BME280;10644;48.834;10.088;2023-01-29T02:17:33;97656.97;;;4.90;55.42
20971;BME280;10644;48.834;10.088;2023-01-29T02:20:32;97666.06;;;5.01;56.02
20971;BME280;10644;48.834;10.088;2023-01-29T02:29:12;97659.75;;;4.73;55.77
20971;BME280;10644;48.834;10.088;2023-01-29T02:35:06;97679.38;;;4.62;56.49
20971;BME280;10644;48.834;10.088;2023-01-29T02:38:04;97682.69;;;4.66;55.85
20971;BME280;10644;48.834;10.088;2023-01-29T02:40:55;97678.41;;;4.69;56.97
20971;BME280;10644;48.834;10.088;2023-01-29T02:46:24;97675.28;;;4.52;55.66
20971;BME280;10644;48.834;10.088;2023-01-29T02:55:14;97672.00;;;4.47;55.23
20971;BME280;10644;48.834;10.088;2023-01-29T02:57:56;97678.13;;;4.31;55.63
20971;BME280;10644;48.834;10.088;2023-01-29T03:00:29;97671.59;;;4.15;55.39
20971;BME280;10644;48.834;10.088;2023-01-29T03:03:16;97671.13;;;3.86;55.26
20971;BME280;10644;48.834;10.088;2023-01-29T03:06:00;97672.81;;;3.84;55.61
20971;BME280;10644;48.834;10.088;2023-01-29T03:08:41;97670.47;;;3.69;56.18
20971;BME280;10644;48.834;10.088;2023-01-29T03:11:11;97671.38;;;3.65;56.00
20971;BME280;10644;48.834;10.088;2023-01-29T03:16:17;97669.25;;;4.00;55.67
20971;BME280;10644;48.834;10.088;2023-01-29T03:19:02;97657.34;;;4.08;55.71
20971;BME280;10644;48.834;10.088;2023-01-29T03:21:49;97658.09;;;4.13;54.45
20971;BME280;10644;48.834;10.088;2023-01-29T03:24:41;97659.78;;;4.13;55.18
20971;BME280;10644;48.834;10.088;2023-01-29T03:27:43;97654.50;;;4.29;55.06
20971;BME280;10644;48.834;10.088;2023-01-29T03:30:32;97648.31;;;4.47;54.73
20971;BME280;10644;48.834;10.088;2023-01-29T03:33:20;97654.28;;;4.44;54.21
20971;BME280;10644;48.834;10.088;2023-01-29T03:36:22;97657.88;;;4.28;54.42
20971;BME280;10644;48.834;10.088;2023-01-29T03:38:50;97658.75;;;4.27;54.60
20971;BME280;10644;48.834;10.088;2023-01-29T03:42:19;97661.00;;;4.47;54.95
20971;BME280;10644;48.834;10.088;2023-01-29T03:44:53;97666.09;;;4.45;54.00
20971;BME280;10644;48.834;10.088;2023-01-29T03:47:47;97665.47;;;4.31;54.50
20971;BME280;10644;48.834;10.088;2023-01-29T03:56:15;97684.84;;;3.67;55.28
20971;BME280;10644;48.834;10.088;2023-01-29T03:58:57;97678.97;;;3.65;55.46
20971;BME280;10644;48.834;10.088;2023-01-29T04:01:50;97679.59;;;3.84;55.43
20971;BME280;10644;48.834;10.088;2023-01-29T04:04:28;97677.72;;;3.96;55.47
20971;BME280;10644;48.834;10.088;2023-01-29T04:06:56;97690.47;;;3.92;54.81
20971;BME280;10644;48.834;10.088;2023-01-29T04:09:36;97688.00;;;3.84;54.80
20971;BME280;10644;48.834;10.088;2023-01-29T04:12:10;97696.38;;;3.92;55.13
20971;BME280;10644;48.834;10.088;2023-01-29T04:14:41;97685.31;;;3.98;54.86
20971;BME280;10644;48.834;10.088;2023-01-29T04:17:15;97681.97;;;3.97;55.17
20971;BME280;10644;48.834;10.088;2023-01-29T04:19:44;97680.13;;;4.08;54.42
20971;BME280;10644;48.834;10.088;2023-01-29T04:22:14;97685.13;;;4.13;54.47
20971;BME280;10644;48.834;10.088;2023-01-29T04:25:06;97691.81;;;4.18;54.51
20971;BME280;10644;48.834;10.088;2023-01-29T04:31:02;97686.03;;;4.07;54.93
20971;BME280;10644;48.834;10.088;2023-01-29T04:36:43;97695.75;;;4.40;54.19
20971;BME280;10644;48.834;10.088;2023-01-29T04:39:25;97692.34;;;4.41;53.89
20971;BME280;10644;48.834;10.088;2023-01-29T04:42:22;97694.41;;;4.15;54.47
20971;BME280;10644;48.834;10.088;2023-01-29T04:50:53;97699.50;;;4.12;54.76
20971;BME280;10644;48.834;10.088;2023-01-29T04:53:54;97685.75;;;4.31;54.71
20971;BME280;10644;48.834;10.088;2023-01-29T04:59:35;97676.91;;;4.59;54.22
20971;BME280;10644;48.834;10.088;2023-01-29T05:02:08;97665.88;;;4.62;54.05
20971;BME280;10644;48.834;10.088;2023-01-29T05:04:37;97669.19;;;4.65;54.02
20971;BME280;10644;48.834;10.088;2023-01-29T05:07:13;97663.38;;;4.57;53.73
20971;BME280;10644;48.834;10.088;2023-01-29T05:09:41;97671.03;;;4.56;54.18
20971;BME280;10644;48.834;10.088;2023-01-29T05:12:13;97667.72;;;4.51;54.27
20971;BME280;10644;48.834;10.088;2023-01-29T05:14:42;97661.38;;;4.20;54.65
20971;BME280;10644;48.834;10.088;2023-01-29T05:17:13;97672.28;;;4.26;54.86
20971;BME280;10644;48.834;10.088;2023-01-29T05:19:43;97665.41;;;4.33;54.84
20971;BME280;10644;48.834;10.088;2023-01-29T05:22:10;97680.69;;;4.31;54.54
20971;BME280;10644;48.834;10.088;2023-01-29T05:24:39;97673.34;;;4.10;54.64
20971;BME280;10644;48.834;10.088;2023-01-29T05:27:04;97674.91;;;4.22;54.40
20971;BME280;10644;48.834;10.088;2023-01-29T05:29:56;97686.00;;;4.12;54.81
20971;BME280;10644;48.834;10.088;2023-01-29T05:32:24;97691.84;;;4.17;54.43
20971;BME280;10644;48.834;10.088;2023-01-29T05:34:55;97689.41;;;4.09;54.66
20971;BME280;10644;48.834;10.088;2023-01-29T05:37:46;97693.44;;;4.24;54.37
20971;BME280;10644;48.834;10.088;2023-01-29T05:40:13;97692.56;;;4.26;54.20
20971;BME280;10644;48.834;10.088;2023-01-29T05:43:03;97686.63;;;4.30;54.16
20971;BME280;10644;48.834;10.088;2023-01-29T05:45:29;97690.03;;;4.28;53.84
20971;BME280;10644;48.834;10.088;2023-01-29T05:47:59;97680.75;;;4.25;54.06
20971;BME280;10644;48.834;10.088;2023-01-29T05:50:26;97674.91;;;4.19;54.33
20971;BME280;10644;48.834;10.088;2023-01-29T05:52:58;97665.56;;;4.22;54.09
20971;BME280;10644;48.834;10.088;2023-01-29T05:55:26;97669.81;;;4.22;54.23
20971;BME280;10644;48.834;10.088;2023-01-29T05:58:15;97663.28;;;4.04;53.96
20971;BME280;10644;48.834;10.088;2023-01-29T06:00:44;97657.50;;;3.93;54.31
20971;BME280;10644;48.834;10.088;2023-01-29T06:03:13;97652.56;;;3.84;54.25
20971;BME280;10644;48.834;10.088;2023-01-29T06:05:47;97647.47;;;3.84;54.72
20971;BME280;10644;48.834;10.088;2023-01-29T06:08:13;97636.56;;;3.79;53.91
20971;BME280;10644;48.834;10.088;2023-01-29T06:10:39;97646.84;;;3.69;54.29
20971;BME280;10644;48.834;10.088;2023-01-29T06:13:04;97627.44;;;3.69;54.36
20971;BME280;10644;48.834;10.088;2023-01-29T06:15:48;97630.69;;;3.77;54.84
20971;BME280;10644;48.834;10.088;2023-01-29T06:18:14;97630.63;;;3.83;54.63
20971;BME280;10644;48.834;10.088;2023-01-29T06:20:40;97629.13;;;3.67;54.11
20971;BME280;10644;48.834;10.088;2023-01-29T06:23:12;97643.72;;;3.47;55.43
20971;BME280;10644;48.834;10.088;2023-01-29T06:25:38;97632.81;;;3.42;55.13
20971;BME280;10644;48.834;10.088;2023-01-29T06:28:03;97638.44;;;3.67;54.89
20971;BME280;10644;48.834;10.088;2023-01-29T06:30:29;97639.22;;;3.70;54.58
20971;BME280;10644;48.834;10.088;2023-01-29T06:33:02;97645.22;;;3.63;55.01
20971;BME280;10644;48.834;10.088;2023-01-29T06:35:43;97650.09;;;3.78;55.10
20971;BME280;10644;48.834;10.088;2023-01-29T06:38:16;97655.94;;;3.86;54.77
20971;BME280;10644;48.834;10.088;2023-01-29T06:40:42;97654.06;;;3.99;54.21
20971;BME280;10644;48.834;10.088;2023-01-29T06:43:14;97658.22;;;4.06;54.50
20971;BME280;10644;48.834;10.088;2023-01-29T06:46:02;97669.22;;;4.03;54.52
20971;BME280;10644;48.834;10.088;2023-01-29T06:48:27;97668.44;;;4.00;54.19
20971;BME280;10644;48.834;10.088;2023-01-29T06:50:52;97657.41;;;4.02;54.42
20971;BME280;10644;48.834;10.088;2023-01-29T06:53:35;97671.69;;;4.08;54.03
20971;BME280;10644;48.834;10.088;2023-01-29T06:56:06;97668.31;;;4.07;54.31
20971;BME280;10644;48.834;10.088;2023-01-29T06:58:38;97675.81;;;4.13;54.08
20971;BME280;10644;48.834;10.088;2023-01-29T07:01:08;97671.50;;;4.23;53.99
20971;BME280;10644;48.834;10.088;2023-01-29T07:03:43;97674.16;;;4.12;53.51
20971;BME280;10644;48.834;10.088;2023-01-29T07:06:09;97677.72;;;3.96;53.93
20971;BME280;10644;48.834;10.088;2023-01-29T07:08:38;97688.78;;;3.94;54.34
20971;BME280;10644;48.834;10.088;2023-01-29T07:11:05;97691.25;;;3.98;54.47
20971;BME280;10644;48.834;10.088;2023-01-29T07:13:36;97691.97;;;4.08;54.57
20971;BME280;10644;48.834;10.088;2023-01-29T07:16:02;97683.56;;;4.06;54.23
20971;BME280;10644;48.834;10.088;2023-01-29T07:18:29;97681.81;;;4.09;54.16
20971;BME280;10644;48.834;10.088;2023-01-29T07:20:57;97687.59;;;4.20;53.98
20971;BME280;10644;48.834;10.088;2023-01-29T07:23:23;97679.00;;;4.30;53.77
20971;BME280;10644;48.834;10.088;2023-01-29T07:25:53;97677.13;;;4.41;53.46
20971;BME280;10644;48.834;10.088;2023-01-29T07:28:29;97684.63;;;4.50;53.85
20971;BME280;10644;48.834;10.088;2023-01-29T07:31:25;97684.59;;;4.52;53.70
20971;BME280;10644;48.834;10.088;2023-01-29T07:33:50;97689.09;;;4.32;53.38
20971;BME280;10644;48.834;10.088;2023-01-29T07:36:15;97676.38;;;4.36;53.55
20971;BME280;10644;48.834;10.088;2023-01-29T07:38:50;97682.19;;;4.41;53.67
20971;BME280;10644;48.834;10.088;2023-01-29T07:41:28;97690.75;;;4.34;53.36
20971;BME280;10644;48.834;10.088;2023-01-29T07:43:57;97684.28;;;4.12;53.95
20971;BME280;10644;48.834;10.088;2023-01-29T07:46:39;97692.91;;;3.98;54.11
20971;BME280;10644;48.834;10.088;2023-01-29T07:49:05;97699.72;;;3.94;54.00
20971;BME280;10644;48.834;10.088;2023-01-29T07:51:30;97696.16;;;4.10;53.78
20971;BME280;10644;48.834;10.088;2023-01-29T07:54:11;97696.22;;;4.04;54.37
20971;BME280;10644;48.834;10.088;2023-01-29T07:56:39;97699.72;;;3.97;54.26
20971;BME280;10644;48.834;10.088;2023-01-29T07:59:12;97708.25;;;3.87;54.69
20971;BME280;10644;48.834;10.088;2023-01-29T08:01:38;97703.91;;;4.00;54.54
20971;BME280;10644;48.834;10.088;2023-01-29T08:04:03;97699.78;;;3.91;54.47
20971;BME280;10644;48.834;10.088;2023-01-29T08:06:29;97709.84;;;3.97;54.55
20971;BME280;10644;48.834;10.088;2023-01-29T08:08:54;97712.16;;;4.15;54.03
20971;BME280;10644;48.834;10.088;2023-01-29T08:11:34;97711.31;;;4.13;54.21
20971;BME280;10644;48.834;10.088;2023-01-29T08:14:05;97700.50;;;4.01;53.85
20971;BME280;10644;48.834;10.088;2023-01-29T08:16:35;97704.81;;;3.93;54.11
20971;BME280;10644;48.834;10.088;2023-01-29T08:19:05;97710.94;;;3.74;54.67
20971;BME280;10644;48.834;10.088;2023-01-29T08:21:32;97710.00;;;3.81;54.15
20971;BME280;10644;48.834;10.088;2023-01-29T08:23:57;97705.81;;;3.78;54.48
20971;BME280;10644;48.834;10.088;2023-01-29T08:26:22;97712.53;;;3.82;54.41
20971;BME280;10644;48.834;10.088;2023-01-29T08:28:50;97710.66;;;3.98;54.70
20971;BME280;10644;48.834;10.088;2023-01-29T08:31:24;97717.47;;;3.94;54.18
20971;BME280;10644;48.834;10.088;2023-01-29T08:33:52;97714.22;;;3.83;54.17
20971;BME280;10644;48.834;10.088;2023-01-29T08:36:21;97716.72;;;3.86;54.34
20971;BME280;10644;48.834;10.088;2023-01-29T08:38:47;97714.28;;;3.79;54.31
20971;BME280;10644;48.834;10.088;2023-01-29T08:41:31;97724.13;;;4.01;54.75
20971;BME280;10644;48.834;10.088;2023-01-29T08:44:02;97735.03;;;4.09;54.15
20971;BME280;10644;48.834;10.088;2023-01-29T08:46:29;97728.38;;;4.02;53.94
20971;BME280;10644;48.834;10.088;2023-01-29T08:49:09;97742.66;;;4.06;53.99
20971;BME280;10644;48.834;10.088;2023-01-29T08:51:34;97738.50;;;4.01;53.93
20971;BME280;10644;48.834;10.088;2023-01-29T08:54:04;97734.31;;;3.97;53.99
20971;BME280;10644;48.834;10.088;2023-01-29T08:56:33;97746.94;;;4.01;54.29
20971;BME280;10644;48.834;10.088;2023-01-29T08:59:04;97748.59;;;4.05;54.11
20971;BME280;10644;48.834;10.088;2023-01-29T09:01:30;97749.28;;;4.19;53.85
20971;BME280;10644;48.834;10.088;2023-01-29T09:03:56;97750.94;;;4.20;53.23
20971;BME280;10644;48.834;10.088;2023-01-29T09:06:24;97759.47;;;4.13;53.38
20971;BME280;10644;48.834;10.088;2023-01-29T09:08:49;97745.13;;;4.12;53.61
20971;BME280;10644;48.834;10.088;2023-01-29T09:11:15;97744.41;;;4.01;53.79
20971;BME280;10644;48.834;10.088;2023-01-29T09:13:46;97751.91;;;4.10;53.47
20971;BME280;10644;48.834;10.088;2023-01-29T09:16:17;97741.84;;;4.04;53.44
20971;BME280;10644;48.834;10.088;2023-01-29T09:18:47;97758.50;;;4.25;53.14
20971;BME280;10644;48.834;10.088;2023-01-29T09:21:12;97757.78;;;4.14;52.97
20971;BME280;10644;48.834;10.088;2023-01-29T09:23:38;97753.72;;;4.02;52.69
20971;BME280;10644;48.834;10.088;2023-01-29T09:26:09;97759.50;;;4.12;53.26
20971;BME280;10644;48.834;10.088;2023-01-29T09:28:35;97757.69;;;4.21;53.12
20971;BME280;10644;48.834;10.088;2023-01-29T09:31:01;97753.50;;;4.17;52.97
20971;BME280;10644;48.834;10.088;2023-01-29T09:33:27;97750.09;;;4.21;52.44
20971;BME280;10644;48.834;10.088;2023-01-29T09:35:53;97751.03;;;4.13;53.35
20971;BME280;10644;48.834;10.088;2023-01-29T09:38:20;97747.69;;;4.11;52.73
20971;BME280;10644;48.834;10.088;2023-01-29T09:43:25;97756.47;;;3.78;53.65
20971;BME280;10644;48.834;10.088;2023-01-29T09:46:16;97745.38;;;3.91;53.32
20971;BME280;10644;48.834;10.088;2023-01-29T09:48:44;97733.31;;;4.11;53.40
20971;BME280;10644;48.834;10.088;2023-01-29T09:51:27;97745.81;;;4.23;52.86
20971;BME280;10644;48.834;10.088;2023-01-29T09:54:10;97748.28;;;4.29;52.89
20971;BME280;10644;48.834;10.088;2023-01-29T09:56:44;97734.78;;;4.30;52.70
20971;BME280;10644;48.834;10.088;2023-01-29T09:59:13;97732.25;;;4.30;52.20
20971;BME280;10644;48.834;10.088;2023-01-29T10:05:13;97724.84;;;4.12;53.03
20971;BME280;10644;48.834;10.088;2023-01-29T10:08:06;97710.50;;;4.13;53.08
20971;BME280;10644;48.834;10.088;2023-01-29T10:11:17;97710.56;;;4.08;53.01
20971;BME280;10644;48.834;10.088;2023-01-29T10:25:19;97686.19;;;4.57;52.63
20971;BME280;10644;48.834;10.088;2023-01-29T10:27:49;97679.34;;;4.65;52.53
20971;BME280;10644;48.834;10.088;2023-01-29T10:30:37;97673.31;;;4.72;52.69
20971;BME280;10644;48.834;10.088;2023-01-29T10:33:18;97662.94;;;4.87;52.47
20971;BME280;10644;48.834;10.088;2023-01-29T10:35:57;97664.50;;;4.94;52.15
20971;BME280;10644;48.834;10.088;2023-01-29T10:38:46;97659.25;;;5.03;51.91
20971;BME280;10644;48.834;10.088;2023-01-29T10:53:24;97690.56;;;4.49;53.25
20971;BME280;10644;48.834;10.088;2023-01-29T10:56:33;97674.94;;;4.76;53.13
20971;BME280;10644;48.834;10.088;2023-01-29T11:01:59;97669.97;;;4.70;52.58
20971;BME280;10644;48.834;10.088;2023-01-29T11:04:37;97667.72;;;4.51;52.25
20971;BME280;10644;48.834;10.088;2023-01-29T11:07:27;97676.91;;;4.59;52.73
20971;BME280;10644;48.834;10.088;2023-01-29T11:10:10;97666.75;;;4.59;52.94
20971;BME280;10644;48.834;10.088;2023-01-29T11:12:41;97667.59;;;4.58;52.49
20971;BME280;10644;48.834;10.088;2023-01-29T11:15:16;97675.19;;;4.58;52.71
20971;BME280;10644;48.834;10.088;2023-01-29T11:20:59;97659.47;;;4.35;52.41
20971;BME280;10644;48.834;10.088;2023-01-29T11:23:28;97669.19;;;4.65;52.41
20971;BME280;10644;48.834;10.088;2023-01-29T11:26:04;97656.63;;;4.56;51.93
20971;BME280;10644;48.834;10.088;2023-01-29T11:28:44;97655.56;;;4.71;51.97
20971;BME280;10644;48.834;10.088;2023-01-29T11:31:38;97657.97;;;4.78;52.10
20971;BME280;10644;48.834;10.088;2023-01-29T11:34:24;97652.13;;;4.75;52.47
20971;BME280;10644;48.834;10.088;2023-01-29T11:37:33;97647.19;;;4.66;52.82
20971;BME280;10644;48.834;10.088;2023-01-29T11:40:34;97650.94;;;4.95;52.51
20971;BME280;10644;48.834;10.088;2023-01-29T11:43:29;97646.31;;;5.17;51.96
20971;BME280;10644;48.834;10.088;2023-01-29T11:46:03;97643.06;;;5.12;51.60
20971;BME280;10644;48.834;10.088;2023-01-29T11:51:24;97636.56;;;4.96;51.82
20971;BME280;10644;48.834;10.088;2023-01-29T11:53:56;97632.06;;;5.11;51.70
20971;BME280;10644;48.834;10.088;2023-01-29T11:56:39;97633.47;;;5.27;51.04
20971;BME280;10644;48.834;10.088;2023-01-29T11:59:36;97624.22;;;5.23;51.15
20971;BME280;10644;48.834;10.088;2023-01-29T12:04:43;97610.78;;;5.17;51.27
20971;BME280;10644;48.834;10.088;2023-01-29T12:07:15;97615.44;;;4.94;51.62
20971;BME280;10644;48.834;10.088;2023-01-29T12:09:49;97600.63;;;4.68;51.90
20971;BME280;10644;48.834;10.088;2023-01-29T12:12:41;97588.25;;;5.00;52.06
20971;BME280;10644;48.834;10.088;2023-01-29T12:15:22;97584.81;;;5.04;51.77
20971;BME280;10644;48.834;10.088;2023-01-29T12:20:37;97569.06;;;4.84;51.88
20971;BME280;10644;48.834;10.088;2023-01-29T12:26:33;97558.25;;;4.76;52.53
20971;BME280;10644;48.834;10.088;2023-01-29T12:38:47;97527.19;;;5.08;52.42
20971;BME280;10644;48.834;10.088;2023-01-29T12:41:33;97537.06;;;4.79;52.79
20971;BME280;10644;48.834;10.088;2023-01-29T12:44:13;97518.06;;;4.99;52.66
20971;BME280;10644;48.834;10.088;2023-01-29T12:46:55;97527.72;;;5.25;52.02
20971;BME280;10644;48.834;10.088;2023-01-29T12:49:40;97518.97;;;5.38;51.68
20971;BME280;10644;48.834;10.088;2023-01-29T12:52:41;97529.41;;;5.24;51.98
20971;BME280;10644;48.834;10.088;2023-01-29T12:55:46;97517.06;;;5.06;51.74
20971;BME280;10644;48.834;10.088;2023-01-29T12:58:21;97515.78;;;5.28;52.00
20971;BME280;10644;48.834;10.088;2023-01-29T13:00:51;97516.59;;;5.30;51.74
20971;BME280;10644;48.834;10.088;2023-01-29T13:06:41;97501.56;;;5.20;51.73
20971;BME280;10644;48.834;10.088;2023-01-29T13:09:25;97499.75;;;5.26;51.88
20971;BME280;10644;48.834;10.088;2023-01-29T13:12:16;97503.56;;;5.47;52.08
20971;BME280;10644;48.834;10.088;2023-01-29T13:17:49;97505.00;;;5.17;51.69
20971;BME280;10644;48.834;10.088;2023-01-29T13:20:39;97505.72;;;5.24;52.00
20971;BME280;10644;48.834;10.088;2023-01-29T13:26:18;97499.38;;;5.44;51.21
20971;BME280;10644;48.834;10.088;2023-01-29T13:28:53;97484.66;;;5.58;51.46
20971;BME280;10644;48.834;10.088;2023-01-29T13:31:36;97490.69;;;5.54;50.92
20971;BME280;10644;48.834;10.088;2023-01-29T13:36:41;97499.75;;;5.26;51.82
20971;BME280;10644;48.834;10.088;2023-01-29T13:39:18;97493.72;;;5.30;51.91
20971;BME280;10644;48.834;10.088;2023-01-29T13:41:56;97489.09;;;5.50;51.95
20971;BME280;10644;48.834;10.088;2023-01-29T13:44:59;97495.34;;;5.34;51.43
20971;BME280;10644;48.834;10.088;2023-01-29T13:47:27;97484.19;;;5.41;51.69
20971;BME280;10644;48.834;10.088;2023-01-29T13:53:03;97498.19;;;5.19;51.76
20971;BME280;10644;48.834;10.088;2023-01-29T13:55:32;97496.38;;;5.24;51.40
20971;BME280;10644;48.834;10.088;2023-01-29T14:01:01;97492.94;;;5.28;51.92
20971;BME280;10644;48.834;10.088;2023-01-29T14:03:48;97496.97;;;5.38;51.24
20971;BME280;10644;48.834;10.088;2023-01-29T14:06:52;97498.19;;;5.19;52.08
20971;BME280;10644;48.834;10.088;2023-01-29T14:17:25;97498.38;;;5.10;52.38
20971;BME280;10644;48.834;10.088;2023-01-29T14:20:00;97503.88;;;5.32;51.87
20971;BME280;10644;48.834;10.088;2023-01-29T14:22:29;97498.06;;;5.25;51.72
20971;BME280;10644;48.834;10.088;2023-01-29T14:25:04;97494.69;;;5.25;51.81
20971;BME280;10644;48.834;10.088;2023-01-29T14:27:50;97504.47;;;5.44;51.35
20971;BME280;10644;48.834;10.088;2023-01-29T14:30:17;97490.28;;;5.34;51.60
20971;BME280;10644;48.834;10.088;2023-01-29T14:32:54;97494.16;;;5.50;51.31
20971;BME280;10644;48.834;10.088;2023-01-29T14:35:26;97485.94;;;5.39;50.98
20971;BME280;10644;48.834;10.088;2023-01-29T14:38:12;97482.59;;;5.37;51.57
20971;BME280;10644;48.834;10.088;2023-01-29T14:43:31;97475.56;;;5.48;51.30
20971;BME280;10644;48.834;10.088;2023-01-29T14:49:07;97489.69;;;5.61;51.08
20971;BME280;10644;48.834;10.088;2023-01-29T14:51:43;97494.22;;;5.47;50.91
20971;BME280;10644;48.834;10.088;2023-01-29T14:54:24;97493.31;;;5.50;51.10
20971;BME280;10644;48.834;10.088;2023-01-29T14:56:59;97485.16;;;5.36;51.06
20971;BME280;10644;48.834;10.088;2023-01-29T14:59:33;97486.31;;;5.21;51.47
20971;BME280;10644;48.834;10.088;2023-01-29T15:02:15;97482.78;;;5.28;51.56
20971;BME280;10644;48.834;10.088;2023-01-29T15:04:47;97475.16;;;5.28;51.54
20971;BME280;10644;48.834;10.088;2023-01-29T15:09:46;97486.31;;;5.21;51.48
20971;BME280;10644;48.834;10.088;2023-01-29T15:21:11;97464.09;;;5.32;51.37
20971;BME280;10644;48.834;10.088;2023-01-29T15:24:03;97472.34;;;5.40;51.35
20971;BME280;10644;48.834;10.088;2023-01-29T15:26:29;97459.06;;;5.28;51.33
20971;BME280;10644;48.834;10.088;2023-01-29T15:28:59;97452.28;;;5.30;51.42
20971;BME280;10644;48.834;10.088;2023-01-29T15:31:27;97448.00;;;5.32;51.60
20971;BME280;10644;48.834;10.088;2023-01-29T15:34:12;97458.75;;;5.44;51.33
20971;BME280;10644;48.834;10.088;2023-01-29T15:36:38;97452.00;;;5.43;51.13
20971;BME280;10644;48.834;10.088;2023-01-29T15:39:21;97445.75;;;5.56;51.29
20971;BME280;10644;48.834;10.088;2023-01-29T15:41:49;97444.88;;;5.57;51.24
20971;BME280;10644;48.834;10.088;2023-01-29T15:44:20;97450.06;;;5.54;51.45
20971;BME280;10644;48.834;10.088;2023-01-29T15:46:52;97454.66;;;5.37;51.07
20971;BME280;10644;48.834;10.088;2023-01-29T15:49:36;97469.22;;;5.29;51.77
20971;BME280;10644;48.834;10.088;2023-01-29T15:52:13;97462.50;;;5.25;51.93
20971;BME280;10644;48.834;10.088;2023-01-29T15:54:40;97462.19;;;5.40;51.77
20971;BME280;10644;48.834;10.088;2023-01-29T15:57:17;97462.47;;;5.28;51.67
20971;BME280;10644;48.834;10.088;2023-01-29T15:59:55;97463.88;;;5.41;51.76
20971;BME280;10644;48.834;10.088;2023-01-29T16:02:40;97460.31;;;5.48;51.78
20971;BME280;10644;48.834;10.088;2023-01-29T16:05:17;97463.72;;;5.47;52.00